Sonora, Texas
Current Conditions -  °F | °C
As of 6:35 PM on Thursday 18 Dec 2014 (Local Time) from KSOA Reporting Station
Clear Clear  
Wind Chill: 55°   Ceiling: Unl
Heat Index: 55°   Visibility: 10mi
Dew Point: 45°   Wind: 3mph
Humidity: 67%   Direction: 20°NNE
Pressure: 30.08"   Gusts: NA
Location:  30.57°N, 100.64°W
Report Text: KSOA 190035Z AUTO 02003KT 10SM CLR 13/07 A3008 RMK AO2
Loading
Personal Weather Stations






























Interactive Weather Map New forecast layout! Learn more

10-Day Weather Forecast

Advertisements
Track Severe Weather on mobile